createdAt,value
2022-09-12T00:01:23.669Z,101629.94
2022-09-12T00:03:53.795Z,101627.19
2022-09-12T00:06:23.748Z,101632.03
2022-09-12T00:08:51.857Z,101624.09
2022-09-12T00:11:21.359Z,101626.97
2022-09-12T00:13:49.530Z,101628.22
2022-09-12T00:16:18.845Z,101623.59
2022-09-12T00:18:47.711Z,101620.63
2022-09-12T00:21:16.769Z,101621.47
2022-09-12T00:23:45.295Z,101624.09
2022-09-12T00:26:13.823Z,101618.06
2022-09-12T00:28:43.452Z,101620.03
2022-09-12T00:31:14.229Z,101624.72
2022-09-12T00:33:42.308Z,101615.19
2022-09-12T00:36:17.222Z,101614.31
2022-09-12T00:38:45.625Z,101609.28
2022-09-12T00:41:17.874Z,101612.66
2022-09-12T00:43:48.894Z,101612.50
2022-09-12T00:46:29.169Z,101618.66
2022-09-12T00:49:00.754Z,101618.66
2022-09-12T00:51:31.708Z,101611.56
2022-09-12T00:54:01.995Z,101608.09
2022-09-12T00:56:30.522Z,101596.31
2022-09-12T00:59:06.461Z,101602.03
2022-09-12T01:01:35.094Z,101598.94
2022-09-12T01:04:03.712Z,101592.38
2022-09-12T01:06:36.574Z,101586.75
2022-09-12T01:09:05.038Z,101581.09
2022-09-12T01:11:35.588Z,101592.72
2022-09-12T01:14:04.996Z,101592.38
2022-09-12T01:16:33.199Z,101591.22
2022-09-12T01:19:18.984Z,101590.78
2022-09-12T01:21:57.863Z,101585.38
2022-09-12T01:25:00.278Z,101583.47
2022-09-12T01:27:43.199Z,101587.16
2022-09-12T01:30:24.984Z,101585.66
2022-09-12T01:33:15.364Z,101573.09
2022-09-12T01:35:51.642Z,101569.91
2022-09-12T01:38:29.100Z,101566.53
2022-09-12T01:41:04.338Z,101568.63
2022-09-12T01:43:37.836Z,101560.16
2022-09-12T01:46:14.662Z,101560.59
2022-09-12T01:48:48.004Z,101559.09
2022-09-12T01:51:22.801Z,101549.97
2022-09-12T01:53:55.670Z,101544.47
2022-09-12T01:56:26.569Z,101548.59
2022-09-12T01:58:59.528Z,101543.81
2022-09-12T02:01:31.848Z,101533.97
2022-09-12T02:04:09.124Z,101536.09
2022-09-12T02:06:45.464Z,101536.16
2022-09-12T02:09:19.635Z,101534.28
2022-09-12T02:11:49.602Z,101530.47
2022-09-12T02:14:22.787Z,101532.56
2022-09-12T02:16:56.991Z,101525.00
2022-09-12T02:19:28.423Z,101528.59
2022-09-12T02:22:01.240Z,101530.25
2022-09-12T02:24:31.922Z,101522.53
2022-09-12T02:27:05.741Z,101514.59
2022-09-12T02:29:33.937Z,101520.06
2022-09-12T02:32:08.545Z,101524.16
2022-09-12T02:34:49.407Z,101524.38
2022-09-12T02:37:26.278Z,101529.22
2022-09-12T02:39:55.305Z,101526.22
2022-09-12T02:42:26.370Z,101524.72
2022-09-12T02:44:56.836Z,101524.81
2022-09-12T02:47:31.190Z,101523.94
2022-09-12T02:50:00.772Z,101518.22
2022-09-12T02:52:29.894Z,101517.03
2022-09-12T02:55:01.255Z,101514.50
2022-09-12T02:57:29.249Z,101521.44
2022-09-12T03:00:00.194Z,101519.41
2022-09-12T03:02:40.367Z,101516.66
2022-09-12T03:05:21.696Z,101511.09
2022-09-12T03:08:12.625Z,101506.84
2022-09-12T03:10:50.941Z,101504.78
2022-09-12T03:13:26.710Z,101501.09
2022-09-12T03:16:08.578Z,101499.88
2022-09-12T03:18:51.727Z,101495.66
2022-09-12T03:21:24.144Z,101490.44
2022-09-12T03:24:06.302Z,101490.66
2022-09-12T03:26:41.983Z,101490.09
2022-09-12T03:29:12.752Z,101495.19
2022-09-12T03:31:50.236Z,101488.53
2022-09-12T03:34:20.185Z,101490.97
2022-09-12T03:36:49.046Z,101495.38
2022-09-12T03:39:20.394Z,101490.97
2022-09-12T03:41:48.459Z,101483.88
2022-09-12T03:44:16.391Z,101487.56
2022-09-12T03:46:44.551Z,101490.69
2022-09-12T03:49:13.041Z,101484.28
2022-09-12T03:51:45.500Z,101474.47
2022-09-12T03:54:13.581Z,101470.88
2022-09-12T03:56:41.588Z,101475.13
2022-09-12T03:59:09.649Z,101478.91
2022-09-12T04:01:38.354Z,101476.53
2022-09-12T04:04:06.409Z,101481.81
2022-09-12T04:06:34.355Z,101473.91
2022-09-12T04:09:06.581Z,101474.88
2022-09-12T04:11:35.897Z,101482.84
2022-09-12T04:14:03.850Z,101483.72
2022-09-12T04:16:32.298Z,101480.16
2022-09-12T04:19:00.577Z,101477.50
2022-09-12T04:21:28.565Z,101467.91
2022-09-12T04:23:56.570Z,101473.16
2022-09-12T04:26:29.802Z,101468.16
2022-09-12T04:28:57.776Z,101461.13
2022-09-12T04:31:28.248Z,101459.63
2022-09-12T04:33:57.221Z,101459.63
2022-09-12T04:36:26.108Z,101456.03
2022-09-12T04:38:54.783Z,101456.03
2022-09-12T04:41:24.635Z,101452.44
2022-09-12T04:43:58.271Z,101455.44
2022-09-12T04:46:27.209Z,101462.81
2022-09-12T04:48:56.987Z,101466.59
2022-09-12T04:51:27.908Z,101464.38
2022-09-12T04:53:57.934Z,101466.50
2022-09-12T04:56:26.416Z,101463.66
2022-09-12T04:58:58.509Z,101462.63
2022-09-12T05:01:30.086Z,101464.22
2022-09-12T05:03:59.963Z,101463.06
2022-09-12T05:06:30.310Z,101457.22
2022-09-12T05:08:59.732Z,101459.94
2022-09-12T05:11:59.785Z,101457.13
2022-09-12T05:14:20.106Z,101459.19
2022-09-12T05:16:49.554Z,101453.34
2022-09-12T05:19:18.408Z,101458.34
2022-09-12T05:21:46.357Z,101451.84
2022-09-12T05:24:17.304Z,101456.91
2022-09-12T05:26:45.293Z,101453.03
2022-09-12T05:29:13.332Z,101456.69
2022-09-12T05:31:42.703Z,101461.69
2022-09-12T05:34:11.259Z,101460.66
2022-09-12T05:36:39.640Z,101467.44
2022-09-12T05:39:07.844Z,101464.47
2022-09-12T05:41:36.491Z,101460.25
2022-09-12T05:44:06.716Z,101450.34
2022-09-12T05:46:38.962Z,101458.19
2022-09-12T05:49:10.386Z,101462.06
2022-09-12T05:51:43.153Z,101462.84
2022-09-12T05:54:14.374Z,101465.47
2022-09-12T05:56:44.632Z,101457.34
2022-09-12T05:59:14.536Z,101447.34
2022-09-12T06:01:43.319Z,101461.38
2022-09-12T06:04:13.214Z,101453.34
2022-09-12T06:06:44.985Z,101466.06
2022-09-12T06:09:14.588Z,101462.25
2022-09-12T06:11:42.881Z,101461.00
2022-09-12T06:14:12.822Z,101459.19
2022-09-12T06:16:41.620Z,101458.06
2022-09-12T06:19:17.835Z,101461.47
2022-09-12T06:21:46.491Z,101466.34
2022-09-12T06:24:14.532Z,101462.84
2022-09-12T06:26:43.799Z,101469.41
2022-09-12T06:29:13.432Z,101464.22
2022-09-12T06:31:43.469Z,101466.34
2022-09-12T06:34:14.158Z,101469.72
2022-09-12T06:36:45.651Z,101458.75
2022-09-12T06:39:15.164Z,101460.22
2022-09-12T06:41:44.341Z,101457.38
2022-09-12T06:44:14.966Z,101457.06
2022-09-12T06:46:46.247Z,101455.03
2022-09-12T06:49:14.849Z,101455.34
2022-09-12T06:51:44.590Z,101463.50
2022-09-12T06:54:14.514Z,101459.91
2022-09-12T06:56:42.863Z,101462.13
2022-09-12T06:59:11.518Z,101463.94
2022-09-12T07:01:40.104Z,101463.69
2022-09-12T07:04:08.519Z,101468.69
2022-09-12T07:06:39.129Z,101469.94
2022-09-12T07:09:12.780Z,101466.13
2022-09-12T07:11:42.843Z,101464.44
2022-09-12T07:14:13.893Z,101457.41
2022-09-12T07:16:42.685Z,101462.31
2022-09-12T07:19:11.362Z,101453.84
2022-09-12T07:21:42.549Z,101456.38
2022-09-12T07:24:11.995Z,101451.28
2022-09-12T07:26:42.197Z,101445.31
2022-09-12T07:29:35.918Z,101444.50
2022-09-12T07:32:05.682Z,101439.94
2022-09-12T07:34:33.796Z,101441.75
2022-09-12T07:37:01.705Z,101443.09
2022-09-12T07:39:30.995Z,101438.78
2022-09-12T07:42:01.580Z,101446.13
2022-09-12T07:44:29.629Z,101451.97
2022-09-12T07:46:57.544Z,101442.47
2022-09-12T07:49:25.688Z,101443.09
2022-09-12T07:51:53.931Z,101449.72
2022-09-12T07:54:25.194Z,101447.41
2022-09-12T07:56:54.522Z,101455.34
2022-09-12T07:59:48.454Z,101452.16
2022-09-12T08:02:17.099Z,101446.44
2022-09-12T08:04:45.377Z,101453.31
2022-09-12T08:07:16.332Z,101447.72
2022-09-12T08:09:44.290Z,101448.47
2022-09-12T08:12:13.731Z,101444.56
2022-09-12T08:14:41.749Z,101453.38
2022-09-12T08:17:09.730Z,101449.31
2022-09-12T08:19:38.439Z,101445.09
2022-09-12T08:22:06.454Z,101450.59
2022-09-12T08:24:34.540Z,101457.97
2022-09-12T08:27:02.493Z,101461.00
2022-09-12T08:29:41.531Z,101458.22
2022-09-12T08:32:09.734Z,101455.50
2022-09-12T08:34:37.635Z,101464.09
2022-09-12T08:37:05.702Z,101459.75
2022-09-12T08:39:33.830Z,101454.72
2022-09-12T08:42:04.162Z,101460.50
2022-09-12T08:44:58.195Z,101465.69
2022-09-12T08:47:29.877Z,101463.72
2022-09-12T08:50:05.487Z,101459.66
2022-09-12T08:52:39.554Z,101459.59
2022-09-12T08:55:14.117Z,101455.78
2022-09-12T08:57:42.094Z,101458.38
2022-09-12T09:00:23.171Z,101457.88
2022-09-12T09:03:07.804Z,101452.97
2022-09-12T09:05:47.262Z,101453.22
2022-09-12T09:08:34.521Z,101451.69
2022-09-12T09:11:14.599Z,101453.50
2022-09-12T09:14:10.847Z,101453.25
2022-09-12T09:16:45.564Z,101449.16
2022-09-12T09:19:17.867Z,101449.97
2022-09-12T09:21:51.864Z,101448.91
2022-09-12T09:24:26.047Z,101446.47
2022-09-12T09:26:59.430Z,101435.56
2022-09-12T09:29:31.532Z,101437.28
2022-09-12T09:32:05.302Z,101435.63
2022-09-12T09:34:33.321Z,101427.69
2022-09-12T09:37:10.316Z,101432.06
2022-09-12T09:39:51.241Z,101423.84
2022-09-12T09:42:28.906Z,101424.88
2022-09-12T09:45:01.166Z,101429.28
2022-09-12T09:47:30.979Z,101415.97
2022-09-12T09:49:59.025Z,101412.72
2022-09-12T09:52:30.706Z,101411.34
2022-09-12T09:55:01.005Z,101412.50
2022-09-12T09:57:46.698Z,101402.72
2022-09-12T10:00:31.677Z,101407.28
2022-09-12T10:03:11.353Z,101407.38
2022-09-12T10:05:48.115Z,101409.78
2022-09-12T10:08:23.013Z,101408.38
2022-09-12T10:10:55.838Z,101402.88
2022-09-12T10:13:28.950Z,101389.69
2022-09-12T10:15:59.318Z,101387.88
2022-09-12T10:18:43.293Z,101380.91
2022-09-12T10:21:19.059Z,101378.38
2022-09-12T10:23:48.829Z,101385.50
2022-09-12T10:26:20.709Z,101378.72
2022-09-12T10:28:52.429Z,101372.34
2022-09-12T10:31:29.164Z,101368.50
2022-09-12T10:34:00.977Z,101359.91
2022-09-12T10:36:38.468Z,101359.31
2022-09-12T10:39:07.360Z,101360.97
2022-09-12T10:41:40.515Z,101354.47
2022-09-12T10:44:17.693Z,101354.84
2022-09-12T10:46:46.034Z,101349.41
2022-09-12T10:49:22.942Z,101356.13
2022-09-12T10:51:52.485Z,101352.72
2022-09-12T10:54:22.901Z,101344.56
2022-09-12T10:57:06.688Z,101339.91
2022-09-12T10:59:52.841Z,101337.06
2022-09-12T11:02:28.504Z,101340.44
2022-09-12T11:05:08.018Z,101337.09
2022-09-12T11:07:43.055Z,101327.94
2022-09-12T11:10:34.301Z,101330.03
2022-09-12T11:13:19.428Z,101321.28
2022-09-12T11:16:10.632Z,101315.06
2022-09-12T11:19:05.966Z,101315.84
2022-09-12T11:21:52.446Z,101306.44
2022-09-12T11:24:35.981Z,101297.38
2022-09-12T11:27:20.580Z,101295.34
2022-09-12T11:29:50.644Z,101294.19
2022-09-12T11:33:05.714Z,101295.44
2022-09-12T11:35:35.628Z,101298.66
2022-09-12T11:38:21.703Z,101290.16
2022-09-12T11:40:54.484Z,101291.84
2022-09-12T11:43:33.040Z,101295.06
2022-09-12T11:46:08.160Z,101305.88
2022-09-12T11:48:44.070Z,101302.38
2022-09-12T11:51:20.600Z,101300.81
2022-09-12T11:54:00.840Z,101302.78
2022-09-12T11:56:28.845Z,101307.63
2022-09-12T11:59:04.123Z,101304.59
2022-09-12T12:01:43.876Z,101302.97
2022-09-12T12:04:16.539Z,101306.72
2022-09-12T12:06:53.948Z,101309.34
2022-09-12T12:09:23.614Z,101301.34
2022-09-12T12:11:57.853Z,101295.22
2022-09-12T12:14:32.073Z,101294.38
2022-09-12T12:17:00.347Z,101297.00
2022-09-12T12:19:35.165Z,101296.97
2022-09-12T12:22:20.600Z,101309.09
2022-09-12T12:25:05.836Z,101305.22
2022-09-12T12:27:51.969Z,101298.22
2022-09-12T12:31:04.089Z,101292.31
2022-09-12T12:34:04.605Z,101283.84
2022-09-12T12:36:43.340Z,101285.94
2022-09-12T12:39:44.841Z,101273.91
2022-09-12T12:42:57.951Z,101278.78
2022-09-12T12:46:08.564Z,101269.84
2022-09-12T12:48:55.908Z,101269.75
2022-09-12T12:51:57.070Z,101264.34
2022-09-12T12:54:31.386Z,101261.28
2022-09-12T12:57:06.039Z,101248.91
2022-09-12T12:59:35.684Z,101247.09
2022-09-12T13:02:05.978Z,101248.53
2022-09-12T13:04:34.876Z,101245.91
2022-09-12T13:07:08.442Z,101235.97
2022-09-12T13:09:44.390Z,101237.19
2022-09-12T13:12:21.347Z,101236.97
2022-09-12T13:14:55.216Z,101230.16
2022-09-12T13:17:31.624Z,101219.94
2022-09-12T13:20:29.248Z,101228.94
2022-09-12T13:22:59.014Z,101219.34
2022-09-12T13:25:30.763Z,101220.56
2022-09-12T13:28:00.970Z,101208.28
2022-09-12T13:30:35.336Z,101207.19
2022-09-12T13:33:12.502Z,101209.00
2022-09-12T13:35:51.393Z,101207.53
2022-09-12T13:38:31.480Z,101208.72
2022-09-12T13:41:21.666Z,101207.34
2022-09-12T13:43:50.704Z,101190.88
2022-09-12T13:46:30.609Z,101195.84
2022-09-12T13:49:00.293Z,101184.09
2022-09-12T13:51:32.142Z,101193.06
2022-09-12T13:54:04.361Z,101187.75
2022-09-12T13:56:32.871Z,101190.91
2022-09-12T13:59:02.603Z,101181.75
2022-09-12T14:01:41.222Z,101166.84
2022-09-12T14:04:34.574Z,101167.94
2022-09-12T14:07:04.949Z,101170.53
2022-09-12T14:09:38.592Z,101159.44
2022-09-12T14:12:18.034Z,101161.00
2022-09-12T14:14:49.987Z,101165.00
2022-09-12T14:17:23.900Z,101160.50
2022-09-12T14:19:52.694Z,101158.81
2022-09-12T14:22:20.790Z,101159.19
2022-09-12T14:24:51.774Z,101164.13
2022-09-12T14:27:23.968Z,101156.81
2022-09-12T14:29:56.065Z,101152.03
2022-09-12T14:32:26.413Z,101152.03
2022-09-12T14:35:20.704Z,101146.66
2022-09-12T14:37:51.020Z,101153.28
2022-09-12T14:40:22.510Z,101150.03
2022-09-12T14:42:52.645Z,101148.41
2022-09-12T14:45:26.650Z,101141.84
2022-09-12T14:47:57.047Z,101134.75
2022-09-12T14:50:27.776Z,101142.34
2022-09-12T14:53:06.970Z,101133.78
2022-09-12T14:55:45.257Z,101132.00
2022-09-12T14:58:17.839Z,101128.47
2022-09-12T15:00:57.820Z,101130.69
2022-09-12T15:03:31.255Z,101128.34
2022-09-12T15:06:00.378Z,101124.09
2022-09-12T15:08:28.552Z,101124.75
2022-09-12T15:10:56.775Z,101125.56
2022-09-12T15:13:30.244Z,101113.28
2022-09-12T15:15:59.953Z,101110.78
2022-09-12T15:18:30.426Z,101105.81
2022-09-12T15:21:03.343Z,101104.34
2022-09-12T15:23:43.659Z,101102.03
2022-09-12T15:26:13.583Z,101095.41
2022-09-12T15:28:44.576Z,101094.47
2022-09-12T15:31:18.413Z,101096.13
2022-09-12T15:33:48.271Z,101097.56
2022-09-12T15:36:18.767Z,101101.31
2022-09-12T15:38:47.749Z,101097.78
2022-09-12T15:41:18.503Z,101097.81
2022-09-12T15:43:47.859Z,101099.16
2022-09-12T15:46:17.541Z,101102.25
2022-09-12T15:48:47.327Z,101086.00
2022-09-12T15:51:16.663Z,101091.13
2022-09-12T15:53:45.371Z,101091.78
2022-09-12T15:56:13.857Z,101088.81
2022-09-12T15:58:57.224Z,101088.72
2022-09-12T16:01:27.099Z,101084.81
2022-09-12T16:03:56.597Z,101079.16
2022-09-12T16:06:24.954Z,101075.31
2022-09-12T16:08:52.861Z,101074.00
2022-09-12T16:11:23.053Z,101069.50
2022-09-12T16:13:53.085Z,101052.09
2022-09-12T16:16:21.186Z,101052.63
2022-09-12T16:18:49.381Z,101057.09
2022-09-12T16:21:18.825Z,101047.63
2022-09-12T16:23:48.151Z,101040.91
2022-09-12T16:26:16.941Z,101045.06
2022-09-12T16:28:45.270Z,101046.69
2022-09-12T16:31:15.160Z,101053.63
2022-09-12T16:33:43.469Z,101052.91
2022-09-12T16:36:13.378Z,101042.50
2022-09-12T16:38:47.334Z,101039.09
2022-09-12T16:41:17.259Z,101030.84
2022-09-12T16:43:45.838Z,101029.38
2022-09-12T16:46:19.076Z,101027.97
2022-09-12T16:48:52.441Z,101032.97
2022-09-12T16:51:22.498Z,101035.66
2022-09-12T16:53:52.050Z,101035.06
2022-09-12T16:56:20.475Z,101033.06
2022-09-12T16:58:49.021Z,101029.63
2022-09-12T17:01:19.444Z,101023.72
2022-09-12T17:03:47.623Z,101021.38
2022-09-12T17:06:18.121Z,101018.38
2022-09-12T17:08:48.258Z,101014.91
2022-09-12T17:11:19.790Z,101022.53
2022-09-12T17:14:06.406Z,101019.06
2022-09-12T17:16:35.985Z,101016.75
2022-09-12T17:19:04.419Z,101024.16
2022-09-12T17:21:33.017Z,101029.94
2022-09-12T17:24:00.931Z,101033.84
2022-09-12T17:26:30.370Z,101032.06
2022-09-12T17:28:58.373Z,101018.44
2022-09-12T17:31:26.666Z,101010.16
2022-09-12T17:33:58.123Z,101004.84
2022-09-12T17:36:27.016Z,100997.72
2022-09-12T17:38:55.305Z,100980.88
2022-09-12T17:41:25.003Z,100978.72
2022-09-12T17:43:56.630Z,100984.81
2022-09-12T17:46:26.351Z,100982.19
2022-09-12T17:48:56.427Z,100984.78
2022-09-12T17:51:26.046Z,100980.97
2022-09-12T17:54:01.217Z,100982.50
2022-09-12T17:56:31.374Z,100985.34
2022-09-12T17:59:01.135Z,100983.41
2022-09-12T18:02:04.266Z,100985.25
2022-09-12T18:04:32.665Z,100979.28
2022-09-12T18:07:00.825Z,100977.78
2022-09-12T18:09:30.633Z,100978.91
2022-09-12T18:11:58.746Z,100987.00
2022-09-12T18:14:30.407Z,100988.03
2022-09-12T18:17:00.209Z,100989.72
2022-09-12T18:19:28.689Z,100992.41
2022-09-12T18:21:57.201Z,100997.59
2022-09-12T18:24:25.901Z,101006.19
2022-09-12T18:26:56.580Z,101001.81
2022-09-12T18:29:24.928Z,101005.84
2022-09-12T18:31:54.525Z,101001.50
2022-09-12T18:34:22.666Z,101002.50
2022-09-12T18:36:54.276Z,100993.63
2022-09-12T18:39:26.843Z,100987.94
2022-09-12T18:41:56.225Z,100986.78
2022-09-12T18:44:24.293Z,100989.47
2022-09-12T18:46:52.359Z,101001.66
2022-09-12T18:49:21.786Z,101004.16
2022-09-12T18:51:49.845Z,100997.31
2022-09-12T18:54:18.684Z,100999.28
2022-09-12T18:56:46.647Z,101007.31
2022-09-12T18:59:15.230Z,100999.44
2022-09-12T19:01:46.284Z,101007.13
2022-09-12T19:04:16.339Z,101012.44
2022-09-12T19:06:48.124Z,101007.44
2022-09-12T19:09:18.582Z,101020.75
2022-09-12T19:11:49.922Z,101023.72
2022-09-12T19:14:19.295Z,101021.69
2022-09-12T19:16:47.380Z,101015.72
2022-09-12T19:19:15.579Z,101005.97
2022-09-12T19:21:45.164Z,100998.38
2022-09-12T19:24:14.412Z,101001.88
2022-09-12T19:26:42.915Z,100993.00
2022-09-12T19:29:14.427Z,100983.16
2022-09-12T19:31:42.806Z,100990.47
2022-09-12T19:34:12.493Z,100991.28
2022-09-12T19:36:45.509Z,100988.91
2022-09-12T19:39:16.962Z,100983.75
2022-09-12T19:41:45.904Z,100971.72
2022-09-12T19:44:13.947Z,100973.34
2022-09-12T19:46:42.086Z,100965.28
2022-09-12T19:49:12.080Z,100957.91
2022-09-12T19:51:40.213Z,100952.16
2022-09-12T19:54:11.399Z,100945.13
2022-09-12T19:56:40.857Z,100949.31
2022-09-12T19:59:09.710Z,100956.25
2022-09-12T20:01:38.022Z,100953.84
2022-09-12T20:04:06.942Z,100949.34
2022-09-12T20:06:35.092Z,100949.88
2022-09-12T20:09:03.233Z,100951.72
2022-09-12T20:11:31.580Z,100950.50
2022-09-12T20:14:01.084Z,100953.03
2022-09-12T20:16:30.097Z,100951.78
2022-09-12T20:19:00.105Z,100954.63
2022-09-12T20:21:33.009Z,100956.31
2022-09-12T20:24:03.190Z,100951.44
2022-09-12T20:26:31.334Z,100949.22
2022-09-12T20:29:00.800Z,100947.88
2022-09-12T20:31:28.880Z,100945.13
2022-09-12T20:33:57.235Z,100937.19
2022-09-12T20:36:25.250Z,100940.84
2022-09-12T20:38:56.842Z,100950.84
2022-09-12T20:41:26.062Z,100951.16
2022-09-12T20:43:55.800Z,100949.09
2022-09-12T20:46:26.915Z,100934.63
2022-09-12T20:48:55.088Z,100922.06
2022-09-12T20:51:24.616Z,100919.56
2022-09-12T20:53:55.063Z,100924.94
2022-09-12T20:56:23.634Z,100925.03
2022-09-12T20:58:54.774Z,100923.91
2022-09-12T21:01:27.316Z,100915.75
2022-09-12T21:03:55.455Z,100922.16
2022-09-12T21:06:24.328Z,100913.34
2022-09-12T21:08:52.660Z,100900.59
2022-09-12T21:11:21.417Z,100900.25
2022-09-12T21:13:50.059Z,100908.81
2022-09-12T21:16:20.281Z,100927.78
2022-09-12T21:18:54.849Z,100935.53
2022-09-12T21:21:23.250Z,100934.00
2022-09-12T21:23:51.733Z,100925.84
2022-09-12T21:26:19.829Z,100934.91
2022-09-12T21:28:47.755Z,100934.97
2022-09-12T21:31:15.810Z,100946.78
2022-09-12T21:33:43.966Z,100949.19
2022-09-12T21:36:13.461Z,100947.31
2022-09-12T21:38:41.564Z,100937.69
2022-09-12T21:41:16.832Z,100930.84
2022-09-12T21:43:45.673Z,100916.41
2022-09-12T21:46:14.014Z,100912.22
2022-09-12T21:48:43.676Z,100908.59
2022-09-12T21:51:13.049Z,100912.34
2022-09-12T21:53:41.131Z,100904.75
2022-09-12T21:56:09.986Z,100914.63
2022-09-12T21:58:39.286Z,100931.66
2022-09-12T22:01:09.446Z,100929.47
2022-09-12T22:03:37.594Z,100934.47
2022-09-12T22:06:08.714Z,100942.06
2022-09-12T22:08:39.887Z,100941.50
2022-09-12T22:11:10.845Z,100939.97
2022-09-12T22:13:42.356Z,100938.59
2022-09-12T22:16:11.278Z,100935.47
2022-09-12T22:18:39.538Z,100936.59
2022-09-12T22:21:09.842Z,100936.06
2022-09-12T22:23:56.961Z,100930.03
2022-09-12T22:26:25.483Z,100927.53
2022-09-12T22:28:54.428Z,100929.06
2022-09-12T22:31:23.288Z,100927.22
2022-09-12T22:33:51.792Z,100928.66
2022-09-12T22:36:19.817Z,100931.88
2022-09-12T22:38:49.328Z,100931.56
2022-09-12T22:41:17.296Z,100925.38
2022-09-12T22:43:45.309Z,100921.63
2022-09-12T22:46:13.841Z,100928.34
2022-09-12T22:48:42.834Z,100925.94
2022-09-12T22:51:12.485Z,100927.31
2022-09-12T22:53:40.803Z,100916.47
2022-09-12T22:56:10.580Z,100921.47
2022-09-12T22:58:39.022Z,100912.63
2022-09-12T23:01:08.075Z,100908.09
2022-09-12T23:03:40.183Z,100899.03
2022-09-12T23:06:09.990Z,100906.03
2022-09-12T23:08:39.475Z,100903.38
2022-09-12T23:11:10.167Z,100904.38
2022-09-12T23:13:40.339Z,100896.47
2022-09-12T23:16:09.171Z,100896.75
2022-09-12T23:18:40.156Z,100891.31
2022-09-12T23:21:11.240Z,100888.63
2022-09-12T23:23:39.992Z,100899.72
2022-09-12T23:26:11.058Z,100887.13
2022-09-12T23:28:41.447Z,100887.19
2022-09-12T23:31:10.284Z,100881.97
2022-09-12T23:33:38.439Z,100872.69
2022-09-12T23:36:12.679Z,100879.56
2022-09-12T23:38:44.471Z,100871.22
2022-09-12T23:41:14.425Z,100873.72
2022-09-12T23:43:45.359Z,100869.97
2022-09-12T23:46:17.383Z,100876.56
2022-09-12T23:48:46.071Z,100876.28
2022-09-12T23:51:14.113Z,100873.47
2022-09-12T23:53:42.441Z,100871.63
2022-09-12T23:56:10.670Z,100869.59
2022-09-12T23:58:38.637Z,100872.38
